sensor_id;sensor_type;location;lat;lon;timestamp;temperature;humidity
25050;DHT22;13046;49.814;9.918;2022-09-12T01:20:28;17.20;99.90
25050;DHT22;13046;49.814;9.918;2022-09-12T01:51:16;12.20;99.90
25050;DHT22;13046;49.814;9.918;2022-09-12T01:53:57;12.20;99.90
25050;DHT22;13046;49.814;9.918;2022-09-12T01:56:26;12.10;99.90
25050;DHT22;13046;49.814;9.918;2022-09-12T02:04:07;12.10;99.90
25050;DHT22;13046;49.814;9.918;2022-09-12T02:06:51;12.10;99.90
25050;DHT22;13046;49.814;9.918;2022-09-12T02:09:25;12.20;99.90
25050;DHT22;13046;49.814;9.918;2022-09-12T02:11:56;12.20;99.90
25050;DHT22;13046;49.814;9.918;2022-09-12T02:14:26;12.10;99.90
25050;DHT22;13046;49.814;9.918;2022-09-12T02:27:00;12.10;99.90
25050;DHT22;13046;49.814;9.918;2022-09-12T12:43:43;12.00;99.90
25050;DHT22;13046;49.814;9.918;2022-09-12T12:46:13;24.80;99.90
25050;DHT22;13046;49.814;9.918;2022-09-12T12:49:07;25.00;99.90
25050;DHT22;13046;49.814;9.918;2022-09-12T12:54:02;25.40;99.90
25050;DHT22;13046;49.814;9.918;2022-09-12T12:56:38;25.30;99.90
25050;DHT22;13046;49.814;9.918;2022-09-12T12:59:18;25.40;99.90
25050;DHT22;13046;49.814;9.918;2022-09-12T13:01:54;25.80;99.90
25050;DHT22;13046;49.814;9.918;2022-09-12T13:04:26;25.90;99.90
25050;DHT22;13046;49.814;9.918;2022-09-12T13:07:04;25.80;99.90
25050;DHT22;13046;49.814;9.918;2022-09-12T13:09:46;25.50;99.90
25050;DHT22;13046;49.814;9.918;2022-09-12T13:12:43;25.40;99.90
25050;DHT22;13046;49.814;9.918;2022-09-12T13:15:47;25.30;99.90
25050;DHT22;13046;49.814;9.918;2022-09-12T13:18:20;25.80;99.90
25050;DHT22;13046;49.814;9.918;2022-09-12T13:23:28;26.00;99.90
25050;DHT22;13046;49.814;9.918;2022-09-12T13:25:58;25.90;99.90
25050;DHT22;13046;49.814;9.918;2022-09-12T13:28:27;25.10;99.90
25050;DHT22;13046;49.814;9.918;2022-09-12T13:31:20;25.50;99.90
25050;DHT22;13046;49.814;9.918;2022-09-12T13:33:53;25.90;99.90
25050;DHT22;13046;49.814;9.918;2022-09-12T13:39:47;26.60;99.90
25050;DHT22;13046;49.814;9.918;2022-09-12T13:47:29;27.30;99.90
25050;DHT22;13046;49.814;9.918;2022-09-12T13:49:57;27.20;99.90
25050;DHT22;13046;49.814;9.918;2022-09-12T13:52:27;26.60;99.90
25050;DHT22;13046;49.814;9.918;2022-09-12T13:54:55;25.80;99.90
25050;DHT22;13046;49.814;9.918;2022-09-12T13:59:54;25.80;99.90
25050;DHT22;13046;49.814;9.918;2022-09-12T14:02:25;26.30;99.90
25050;DHT22;13046;49.814;9.918;2022-09-12T14:04:52;26.40;99.90
25050;DHT22;13046;49.814;9.918;2022-09-12T14:07:48;26.60;99.90
25050;DHT22;13046;49.814;9.918;2022-09-12T14:10:45;26.90;99.90
25050;DHT22;13046;49.814;9.918;2022-09-12T14:13:25;27.20;99.90
25050;DHT22;13046;49.814;9.918;2022-09-12T14:15:53;27.20;99.90
25050;DHT22;13046;49.814;9.918;2022-09-12T14:18:28;27.10;99.90
25050;DHT22;13046;49.814;9.918;2022-09-12T14:21:09;27.10;99.90
25050;DHT22;13046;49.814;9.918;2022-09-12T14:23:38;27.20;99.90
25050;DHT22;13046;49.814;9.918;2022-09-12T14:26:09;27.20;99.90
25050;DHT22;13046;49.814;9.918;2022-09-12T14:28:39;27.20;99.90
25050;DHT22;13046;49.814;9.918;2022-09-12T14:31:34;27.10;99.90
25050;DHT22;13046;49.814;9.918;2022-09-12T14:34:13;26.80;99.90
25050;DHT22;13046;49.814;9.918;2022-09-12T14:36:53;26.30;99.90
25050;DHT22;13046;49.814;9.918;2022-09-12T14:39:23;26.20;99.90
25050;DHT22;13046;49.814;9.918;2022-09-12T14:42:00;26.30;99.90
25050;DHT22;13046;49.814;9.918;2022-09-12T14:44:27;26.30;99.90
25050;DHT22;13046;49.814;9.918;2022-09-12T14:46:54;25.90;99.90
25050;DHT22;13046;49.814;9.918;2022-09-12T14:49:30;25.80;99.90
25050;DHT22;13046;49.814;9.918;2022-09-12T14:51:59;25.30;99.90
25050;DHT22;13046;49.814;9.918;2022-09-12T14:57:03;24.90;99.90
25050;DHT22;13046;49.814;9.918;2022-09-12T14:59:37;25.00;99.90
25050;DHT22;13046;49.814;9.918;2022-09-12T15:07:27;25.80;99.90
25050;DHT22;13046;49.814;9.918;2022-09-12T15:09:54;25.60;99.90
25050;DHT22;13046;49.814;9.918;2022-09-12T15:12:19;25.40;99.90
25050;DHT22;13046;49.814;9.918;2022-09-12T15:14:45;24.80;99.90
25050;DHT22;13046;49.814;9.918;2022-09-12T15:17:10;24.60;99.90
25050;DHT22;13046;49.814;9.918;2022-09-12T15:19:36;24.60;99.90
25050;DHT22;13046;49.814;9.918;2022-09-12T15:22:04;24.50;99.90
25050;DHT22;13046;49.814;9.918;2022-09-12T15:24:29;24.70;99.90
25050;DHT22;13046;49.814;9.918;2022-09-12T15:26:55;24.80;99.90
25050;DHT22;13046;49.814;9.918;2022-09-12T15:29:21;24.80;99.90
25050;DHT22;13046;49.814;9.918;2022-09-12T15:31:49;24.70;99.90
25050;DHT22;13046;49.814;9.918;2022-09-12T15:34:15;24.50;99.90
25050;DHT22;13046;49.814;9.918;2022-09-12T15:36:41;24.50;99.90
25050;DHT22;13046;49.814;9.918;2022-09-12T15:39:08;24.40;99.90
25050;DHT22;13046;49.814;9.918;2022-09-12T15:41:36;24.50;99.90
25050;DHT22;13046;49.814;9.918;2022-09-12T15:44:08;24.60;99.90
25050;DHT22;13046;49.814;9.918;2022-09-12T15:46:35;24.50;99.90
25050;DHT22;13046;49.814;9.918;2022-09-12T15:49:01;24.30;99.90
25050;DHT22;13046;49.814;9.918;2022-09-12T15:51:26;24.20;99.90
25050;DHT22;13046;49.814;9.918;2022-09-12T15:56:33;24.40;99.90
25050;DHT22;13046;49.814;9.918;2022-09-12T15:58:58;24.30;99.90
25050;DHT22;13046;49.814;9.918;2022-09-12T16:01:24;24.50;99.90
25050;DHT22;13046;49.814;9.918;2022-09-12T16:03:50;24.60;99.90
25050;DHT22;13046;49.814;9.918;2022-09-12T16:06:16;24.60;99.90
25050;DHT22;13046;49.814;9.918;2022-09-12T16:08:42;24.50;99.90
25050;DHT22;13046;49.814;9.918;2022-09-12T16:11:12;24.50;99.90
25050;DHT22;13046;49.814;9.918;2022-09-12T16:13:41;24.50;99.90
25050;DHT22;13046;49.814;9.918;2022-09-12T16:16:07;24.60;99.90
25050;DHT22;13046;49.814;9.918;2022-09-12T16:18:33;24.50;99.90
25050;DHT22;13046;49.814;9.918;2022-09-12T16:20:59;24.50;99.90
25050;DHT22;13046;49.814;9.918;2022-09-12T16:23:25;24.50;99.90
25050;DHT22;13046;49.814;9.918;2022-09-12T16:26:04;24.60;99.90
25050;DHT22;13046;49.814;9.918;2022-09-12T16:28:30;24.60;99.90
25050;DHT22;13046;49.814;9.918;2022-09-12T16:31:01;24.50;99.90
25050;DHT22;13046;49.814;9.918;2022-09-12T16:33:29;24.50;99.90
25050;DHT22;13046;49.814;9.918;2022-09-12T16:36:09;24.40;99.90
25050;DHT22;13046;49.814;9.918;2022-09-12T16:38:40;24.10;99.90
25050;DHT22;13046;49.814;9.918;2022-09-12T16:41:06;23.90;99.90
25050;DHT22;13046;49.814;9.918;2022-09-12T16:43:33;23.60;99.90
25050;DHT22;13046;49.814;9.918;2022-09-12T18:21:39;23.30;99.90
25050;DHT22;13046;49.814;9.918;2022-09-12T18:24:05;18.30;99.90
25050;DHT22;13046;49.814;9.918;2022-09-12T18:26:32;18.20;99.90
25050;DHT22;13046;49.814;9.918;2022-09-12T18:28:57;18.10;99.90
25050;DHT22;13046;49.814;9.918;2022-09-12T18:31:28;18.20;99.90
25050;DHT22;13046;49.814;9.918;2022-09-12T18:33:54;18.10;99.90
25050;DHT22;13046;49.814;9.918;2022-09-12T18:36:20;17.90;99.90
25050;DHT22;13046;49.814;9.918;2022-09-12T18:38:46;17.80;99.90
25050;DHT22;13046;49.814;9.918;2022-09-12T18:41:18;17.80;99.90
25050;DHT22;13046;49.814;9.918;2022-09-12T18:43:45;17.80;99.90
25050;DHT22;13046;49.814;9.918;2022-09-12T18:48:42;17.80;99.90
25050;DHT22;13046;49.814;9.918;2022-09-12T18:51:11;17.60;99.90
25050;DHT22;13046;49.814;9.918;2022-09-12T18:53:38;17.70;99.90
25050;DHT22;13046;49.814;9.918;2022-09-12T18:56:06;17.60;99.90
25050;DHT22;13046;49.814;9.918;2022-09-12T18:58:40;17.60;99.90
25050;DHT22;13046;49.814;9.918;2022-09-12T19:01:15;17.60;99.90
25050;DHT22;13046;49.814;9.918;2022-09-12T19:03:41;17.50;99.90
25050;DHT22;13046;49.814;9.918;2022-09-12T20:44:08;17.50;99.90
25050;DHT22;13046;49.814;9.918;2022-09-12T20:46:34;15.80;99.90
25050;DHT22;13046;49.814;9.918;2022-09-12T21:50:13;15.70;99.90
25050;DHT22;13046;49.814;9.918;2022-09-12T21:52:39;14.80;99.90
